Time;durP1;ratioP1;P1;durP2;ratioP2;P2;SDS_P1;SDS_P2;PMS_P1;PMS_P2;Temp;Humidity;BMP_temperature;BMP_pressure;BME280_temperature;BME280_humidity;BME280_pressure;Samples;Min_cycle;Max_cycle;Signal;HPM_P1;HPM_P2
2022/03/08 00:01:04;;;;;;;22.63;21.63;;;;;;;-141.02;100.00;55844.97;5135507;27;20234;-75
2022/03/08 00:03:32;;;;;;;22.33;21.33;;;;;;;-141.02;100.00;55844.97;5135168;27;20224;-75
2022/03/08 00:05:59;;;;;;;22.50;21.50;;;;;;;-141.02;100.00;55844.97;5135093;27;20236;-75
2022/03/08 00:08:27;;;;;;;22.87;21.87;;;;;;;-141.02;100.00;55844.97;5135604;27;20261;-75
2022/03/08 00:10:54;;;;;;;22.00;20.93;;;;;;;-141.02;100.00;55844.97;5135168;27;20226;-75
2022/03/08 00:13:21;;;;;;;22.77;21.57;;;;;;;-141.02;100.00;55844.97;5135116;27;20311;-75
2022/03/08 00:15:49;;;;;;;21.30;20.40;;;;;;;-141.02;100.00;55844.97;5135061;27;20196;-75
2022/03/08 00:18:17;;;;;;;23.00;21.90;;;;;;;-141.02;100.00;55844.97;5134700;27;20235;-75
2022/03/08 00:20:44;;;;;;;20.30;18.83;;;;;;;-141.02;100.00;55844.97;5135093;27;20642;-74
2022/03/08 00:23:11;;;;;;;17.43;16.43;;;;;;;-141.02;100.00;55844.97;5134591;27;20243;-75
2022/03/08 00:25:40;;;;;;;20.20;19.20;;;;;;;-141.02;100.00;55844.97;5135820;27;20251;-75
2022/03/08 00:28:07;;;;;;;18.63;17.53;;;;;;;-141.02;100.00;55844.97;5134878;27;20239;-75
2022/03/08 00:30:34;;;;;;;21.63;20.27;;;;;;;-141.02;100.00;55844.97;5134511;27;20228;-74
2022/03/08 00:33:01;;;;;;;21.33;20.00;;;;;;;-141.02;100.00;55844.97;5134200;27;20224;-74
2022/03/08 00:35:28;;;;;;;22.30;20.70;;;;;;;-141.02;100.00;55844.97;5134937;27;20283;-74
2022/03/08 00:37:58;;;;;;;24.03;21.97;;;;;;;-141.02;100.00;55844.97;5134183;27;20734;-75
2022/03/08 00:40:26;;;;;;;20.87;19.33;;;;;;;-141.02;100.00;55844.97;5134567;27;20188;-75
2022/03/08 00:42:55;;;;;;;21.37;19.97;;;;;;;-141.02;100.00;55844.97;5134598;27;20658;-74
2022/03/08 00:45:22;;;;;;;24.07;22.63;;;;;;;-141.02;100.00;55844.97;5134526;27;20220;-74
2022/03/08 00:47:49;;;;;;;22.33;21.40;;;;;;;-141.02;100.00;55844.97;5134867;27;20201;-75
2022/03/08 00:50:19;;;;;;;23.83;22.63;;;;;;;-141.02;100.00;55844.97;5134454;27;20325;-74
2022/03/08 00:52:47;;;;;;;23.17;22.13;;;;;;;-141.02;100.00;55844.97;5134041;27;20241;-75
2022/03/08 00:55:15;;;;;;;23.87;22.77;;;;;;;-141.02;100.00;55844.97;5134845;27;20200;-74
2022/03/08 00:57:43;;;;;;;26.10;24.53;;;;;;;-141.02;100.00;55844.97;5134274;27;20573;-75
2022/03/08 01:00:15;;;;;;;24.10;22.70;;;;;;;-141.02;100.00;55844.97;5134220;27;20192;-74
2022/03/08 01:02:42;;;;;;;26.23;24.63;;;;;;;-141.02;100.00;55844.97;5134223;27;20184;-75
2022/03/08 01:05:09;;;;;;;24.20;23.10;;;;;;;-141.02;100.00;55844.97;5134206;27;20246;-74
2022/03/08 01:07:37;;;;;;;24.97;23.77;;;;;;;-141.02;100.00;55844.97;5133875;27;20226;-75
2022/03/08 01:10:05;;;;;;;26.03;24.73;;;;;;;-141.02;100.00;55844.97;5134341;27;20262;-74
2022/03/08 01:12:32;;;;;;;26.53;25.00;;;;;;;-141.02;100.00;55844.97;5133766;27;20188;-74
2022/03/08 01:15:01;;;;;;;25.73;24.43;;;;;;;-141.02;100.00;55844.97;5133926;27;20285;-74
2022/03/08 01:17:29;;;;;;;25.50;24.30;;;;;;;-141.02;100.00;55844.97;5133649;27;20614;-75
2022/03/08 01:19:57;;;;;;;23.23;22.23;;;;;;;-141.02;100.00;55844.97;5134406;27;20284;-75
2022/03/08 01:22:25;;;;;;;22.43;21.43;;;;;;;-141.02;100.00;55844.97;5133858;27;20228;-74
2022/03/08 01:24:53;;;;;;;25.07;23.73;;;;;;;-141.02;100.00;55844.97;5133845;27;20293;-74
2022/03/08 01:27:20;;;;;;;29.23;27.57;;;;;;;-141.02;100.00;55844.97;5133436;27;20192;-75
2022/03/08 01:29:46;;;;;;;26.50;25.30;;;;;;;-141.02;100.00;55844.97;5133437;27;20688;-74
2022/03/08 01:32:14;;;;;;;27.70;26.40;;;;;;;-141.02;100.00;55844.97;5133344;27;20749;-74
2022/03/08 01:34:42;;;;;;;26.27;24.97;;;;;;;-141.02;100.00;55844.97;5133318;27;20689;-74
2022/03/08 01:37:11;;;;;;;28.33;26.93;;;;;;;-141.02;100.00;55844.97;5133439;27;20767;-75
2022/03/08 01:39:38;;;;;;;28.47;27.07;;;;;;;-141.02;100.00;55844.97;5133723;27;20224;-74
2022/03/08 01:42:09;;;;;;;27.60;26.10;;;;;;;-141.02;100.00;55844.97;5133630;27;20253;-73
2022/03/08 01:44:36;;;;;;;27.40;25.93;;;;;;;-141.02;100.00;55844.97;5132703;27;20245;-75
2022/03/08 01:47:04;;;;;;;28.50;27.00;;;;;;;-141.02;100.00;55844.97;5133515;27;20249;-74
2022/03/08 01:49:31;;;;;;;28.47;26.97;;;;;;;-141.02;100.00;55844.97;5133132;27;20230;-75
2022/03/08 01:52:00;;;;;;;27.80;26.30;;;;;;;-141.02;100.00;55844.97;5133159;27;20231;-75
2022/03/08 01:54:27;;;;;;;27.47;25.97;;;;;;;-141.02;100.00;55844.97;5133316;27;20220;-74
2022/03/08 01:56:54;;;;;;;29.23;27.73;;;;;;;-141.02;100.00;55844.97;5133061;27;20204;-75
2022/03/08 01:59:21;;;;;;;28.40;26.90;;;;;;;-141.02;100.00;55844.97;5133347;27;20197;-74
2022/03/08 02:01:48;;;;;;;30.73;29.03;;;;;;;-141.02;100.00;55844.97;5133182;27;20197;-74
2022/03/08 02:04:15;;;;;;;27.37;25.87;;;;;;;-141.02;100.00;55844.97;5133245;28;20199;-74
2022/03/08 02:06:45;;;;;;;26.50;25.10;;;;;;;-141.02;100.00;55844.97;5132907;28;20231;-75
2022/03/08 02:09:14;;;;;;;25.67;24.37;;;;;;;-141.02;100.00;55844.97;5132925;27;20241;-75
2022/03/08 02:11:42;;;;;;;28.23;26.63;;;;;;;-141.02;100.00;55844.97;5133284;28;20232;-75
2022/03/08 02:14:09;;;;;;;26.83;25.53;;;;;;;-141.02;100.00;55844.97;5132936;27;20310;-74
2022/03/08 02:16:36;;;;;;;25.63;24.33;;;;;;;-141.02;100.00;55844.97;5133248;27;20231;-74
2022/03/08 02:19:03;;;;;;;25.97;24.57;;;;;;;-141.02;100.00;55844.97;5132789;27;20733;-74
2022/03/08 02:21:35;;;;;;;24.80;23.50;;;;;;;-141.02;100.00;55844.97;5132778;28;20285;-74
2022/03/08 02:24:03;;;;;;;26.93;25.43;;;;;;;-141.02;100.00;55844.97;5133170;27;20243;-74
2022/03/08 02:26:31;;;;;;;24.43;23.13;;;;;;;-141.02;100.00;55844.97;5132766;28;20682;-74
2022/03/08 02:28:58;;;;;;;23.57;22.27;;;;;;;-141.02;100.00;55844.97;5133046;27;20754;-74
2022/03/08 02:31:25;;;;;;;26.13;24.73;;;;;;;-141.02;100.00;55844.97;5132998;28;20220;-73
2022/03/08 02:33:52;;;;;;;27.87;26.20;;;;;;;-141.02;100.00;55844.97;5132906;28;20690;-75
2022/03/08 02:36:19;;;;;;;26.83;25.13;;;;;;;-141.02;100.00;55844.97;5132652;28;20232;-75
2022/03/08 02:38:48;;;;;;;26.80;25.50;;;;;;;-141.02;100.00;55844.97;5132579;28;20255;-74
2022/03/08 02:41:15;;;;;;;32.43;30.30;;;;;;;-141.02;100.00;55844.97;5132943;28;20279;-75
2022/03/08 02:43:42;;;;;;;25.67;24.37;;;;;;;-141.02;100.00;55844.97;5132913;28;20283;-74
2022/03/08 02:46:09;;;;;;;26.67;25.37;;;;;;;-141.02;100.00;55844.97;5132579;28;20224;-75
2022/03/08 02:48:36;;;;;;;28.37;26.83;;;;;;;-141.02;100.00;55844.97;5132537;28;20228;-73
2022/03/08 02:51:04;;;;;;;31.83;29.70;;;;;;;-141.02;100.00;55844.97;5132603;27;20188;-74
2022/03/08 02:53:32;;;;;;;27.50;25.93;;;;;;;-141.02;100.00;55844.97;5132434;28;20197;-74
2022/03/08 02:56:01;;;;;;;25.57;24.37;;;;;;;-141.02;100.00;55844.97;5135283;27;20246;-75
2022/03/08 02:58:29;;;;;;;25.37;24.17;;;;;;;-141.02;100.00;55844.97;5136757;27;20204;-74
2022/03/08 03:00:56;;;;;;;26.23;24.93;;;;;;;-141.02;100.00;55844.97;5136640;27;20227;-74
2022/03/08 03:03:23;;;;;;;25.20;24.10;;;;;;;-141.02;100.00;55844.97;5136526;27;20548;-74
2022/03/08 03:05:50;;;;;;;26.27;25.07;;;;;;;-141.02;100.00;55844.97;5136179;27;20250;-74
2022/03/08 03:08:17;;;;;;;27.37;26.07;;;;;;;-141.02;100.00;55844.97;5136450;27;20196;-74
2022/03/08 03:10:44;;;;;;;27.20;25.80;;;;;;;-141.02;100.00;55844.97;5136060;27;20193;-75
2022/03/08 03:13:12;;;;;;;26.13;24.90;;;;;;;-141.02;100.00;55844.97;5136903;27;20224;-74
2022/03/08 03:15:39;;;;;;;28.93;27.07;;;;;;;-141.02;100.00;55844.97;5136266;27;20311;-75
2022/03/08 03:18:10;;;;;;;27.23;25.53;;;;;;;-141.02;100.00;55844.97;5135891;27;20192;-74
2022/03/08 03:20:37;;;;;;;25.07;23.57;;;;;;;-141.02;100.00;55844.97;5135974;27;20196;-73
2022/03/08 03:23:04;;;;;;;24.40;23.10;;;;;;;-141.02;100.00;55844.97;5135863;27;20627;-74
2022/03/08 03:25:31;;;;;;;25.53;24.23;;;;;;;-141.02;100.00;55844.97;5136202;27;20192;-74
2022/03/08 03:27:58;;;;;;;27.87;26.27;;;;;;;-141.02;100.00;55844.97;5136654;27;20249;-73
2022/03/08 03:30:27;;;;;;;25.13;23.83;;;;;;;-141.02;100.00;55844.97;5135749;27;20197;-75
2022/03/08 03:32:54;;;;;;;25.57;24.27;;;;;;;-141.02;100.00;55844.97;5136048;27;20291;-75
2022/03/08 03:35:21;;;;;;;26.43;25.13;;;;;;;-141.02;100.00;55844.97;5135851;27;20254;-74
2022/03/08 03:37:48;;;;;;;28.00;26.50;;;;;;;-141.02;100.00;55844.97;5135752;27;20267;-75
2022/03/08 03:40:16;;;;;;;26.30;25.00;;;;;;;-141.02;100.00;55844.97;5135918;27;20280;-75
2022/03/08 03:42:44;;;;;;;28.40;26.90;;;;;;;-141.02;100.00;55844.97;5135871;27;20254;-74
2022/03/08 03:45:11;;;;;;;60.57;57.00;;;;;;;-141.02;100.00;55844.97;5136010;27;20279;-74
2022/03/08 03:47:40;;;;;;;26.13;24.83;;;;;;;-141.02;100.00;55844.97;5135391;27;20710;-74
2022/03/08 03:50:09;;;;;;;25.97;24.67;;;;;;;-141.02;100.00;55844.97;5135450;27;20733;-73
2022/03/08 03:52:36;;;;;;;28.53;26.83;;;;;;;-141.02;100.00;55844.97;5135311;27;20239;-74
2022/03/08 03:55:05;;;;;;;25.17;23.97;;;;;;;-141.02;100.00;55844.97;5135490;27;20259;-76
2022/03/08 03:57:32;;;;;;;23.83;22.73;;;;;;;-141.02;100.00;55844.97;5135161;27;20677;-75
2022/03/08 03:59:59;;;;;;;22.47;21.27;;;;;;;-141.02;100.00;55844.97;5135497;27;20562;-73
2022/03/08 04:02:27;;;;;;;25.67;24.47;;;;;;;-141.02;100.00;55844.97;5135446;27;20285;-75
2022/03/08 04:04:55;;;;;;;20.73;19.53;;;;;;;-141.02;100.00;55844.97;5135011;27;20231;-75
2022/03/08 04:07:22;;;;;;;23.60;22.30;;;;;;;-141.02;100.00;55844.97;5134429;27;20192;-75
2022/03/08 04:09:50;;;;;;;27.77;25.87;;;;;;;-141.02;100.00;55844.97;5135231;27;20279;-75
2022/03/08 04:12:17;;;;;;;24.00;22.60;;;;;;;-141.02;100.00;55844.97;5135287;27;20192;-73
2022/03/08 04:14:44;;;;;;;25.77;24.23;;;;;;;-141.02;100.00;55844.97;5134810;27;20224;-74
2022/03/08 04:17:11;;;;;;;22.53;21.23;;;;;;;-141.02;100.00;55844.97;5134916;27;20228;-74
2022/03/08 04:19:38;;;;;;;22.67;21.37;;;;;;;-141.02;100.00;55844.97;5134789;27;20693;-74
2022/03/08 04:22:06;;;;;;;22.37;21.07;;;;;;;-141.02;100.00;55844.97;5134993;27;20197;-74
2022/03/08 04:24:34;;;;;;;22.93;21.53;;;;;;;-141.02;100.00;55844.97;5134940;27;20189;-75
2022/03/08 04:27:01;;;;;;;23.63;21.50;;;;;;;-141.02;100.00;55844.97;5134919;27;20196;-75
2022/03/08 04:29:28;;;;;;;22.17;20.90;;;;;;;-141.02;100.00;55844.97;5134851;27;20224;-74
2022/03/08 04:31:55;;;;;;;21.30;20.10;;;;;;;-141.02;100.00;55844.97;5134500;27;20727;-73
2022/03/08 04:34:22;;;;;;;21.93;20.70;;;;;;;-141.02;100.00;55844.97;5134352;27;20230;-73
2022/03/08 04:36:49;;;;;;;22.10;20.80;;;;;;;-141.02;100.00;55844.97;5134255;27;20287;-75
2022/03/08 04:39:18;;;;;;;22.37;20.97;;;;;;;-141.02;100.00;55844.97;5134781;27;20215;-74
2022/03/08 04:41:45;;;;;;;20.83;19.63;;;;;;;-141.02;100.00;55844.97;5134682;27;20200;-74
2022/03/08 04:44:12;;;;;;;21.40;20.20;;;;;;;-141.02;100.00;55844.97;5134327;27;20200;-75
2022/03/08 04:46:39;;;;;;;21.00;19.80;;;;;;;-141.02;100.00;55844.97;5134585;27;20262;-74
2022/03/08 04:49:06;;;;;;;19.80;18.70;;;;;;;-141.02;100.00;55844.97;5134500;27;20247;-74
2022/03/08 04:51:33;;;;;;;22.13;20.83;;;;;;;-141.02;100.00;55844.97;5134145;27;20229;-74
2022/03/08 04:54:00;;;;;;;19.50;18.40;;;;;;;-141.02;100.00;55844.97;5134015;27;20232;-75
2022/03/08 04:56:28;;;;;;;20.50;19.40;;;;;;;-141.02;100.00;55844.97;5134393;27;20200;-75
2022/03/08 04:58:56;;;;;;;20.87;19.77;;;;;;;-141.02;100.00;55844.97;5134330;27;20192;-75
2022/03/08 05:01:23;;;;;;;20.80;19.60;;;;;;;-141.02;100.00;55844.97;5134317;27;20250;-75
2022/03/08 05:03:50;;;;;;;20.50;19.33;;;;;;;-141.02;100.00;55844.97;5133844;27;20657;-75
2022/03/08 05:06:18;;;;;;;20.70;19.50;;;;;;;-141.02;100.00;55844.97;5134178;27;20196;-75
2022/03/08 05:08:45;;;;;;;22.13;20.93;;;;;;;-141.02;100.00;55844.97;5134166;27;20224;-75
2022/03/08 05:11:12;;;;;;;19.93;18.83;;;;;;;-141.02;100.00;55844.97;5133808;27;20283;-75
2022/03/08 05:13:40;;;;;;;20.17;19.07;;;;;;;-141.02;100.00;55844.97;5133708;27;20253;-75
2022/03/08 05:16:07;;;;;;;21.10;19.90;;;;;;;-141.02;100.00;55844.97;5133785;27;20708;-73
2022/03/08 05:18:34;;;;;;;21.17;19.97;;;;;;;-141.02;100.00;55844.97;5133849;27;20239;-74
2022/03/08 05:21:01;;;;;;;24.17;22.67;;;;;;;-141.02;100.00;55844.97;5133520;27;20196;-75
2022/03/08 05:23:29;;;;;;;20.87;19.77;;;;;;;-141.02;100.00;55844.97;5133949;27;20199;-75
2022/03/08 05:25:56;;;;;;;20.10;19.00;;;;;;;-141.02;100.00;55844.97;5133825;27;20228;-75
2022/03/08 05:28:23;;;;;;;21.10;19.90;;;;;;;-141.02;100.00;55844.97;5133457;27;20192;-75
2022/03/08 05:30:53;;;;;;;20.93;19.73;;;;;;;-141.02;100.00;55844.97;5133435;27;20756;-75
2022/03/08 05:33:20;;;;;;;21.10;19.90;;;;;;;-141.02;100.00;55844.97;5133301;27;20201;-75
2022/03/08 05:35:47;;;;;;;21.83;20.57;;;;;;;-141.02;100.00;55844.97;5133307;27;20661;-75
2022/03/08 05:38:14;;;;;;;21.77;20.57;;;;;;;-141.02;100.00;55844.97;5133219;27;20228;-74
2022/03/08 05:40:41;;;;;;;21.43;20.23;;;;;;;-141.02;100.00;55844.97;5133652;27;20231;-75
2022/03/08 05:43:08;;;;;;;21.53;20.33;;;;;;;-141.02;100.00;55844.97;5133601;27;20646;-75
2022/03/08 05:45:35;;;;;;;23.90;22.47;;;;;;;-141.02;100.00;55844.97;5133612;27;20227;-75
2022/03/08 05:48:03;;;;;;;24.00;22.60;;;;;;;-141.02;100.00;55844.97;5133791;27;20617;-74
2022/03/08 05:50:31;;;;;;;21.83;20.63;;;;;;;-141.02;100.00;55844.97;5133144;27;20724;-75
2022/03/08 05:52:58;;;;;;;23.33;22.00;;;;;;;-141.02;100.00;55844.97;5133513;27;20196;-75
2022/03/08 05:55:25;;;;;;;26.70;24.67;;;;;;;-141.02;100.00;55844.97;5133030;27;20224;-74
2022/03/08 05:57:52;;;;;;;23.50;22.20;;;;;;;-141.02;100.00;55844.97;5133012;27;20239;-75
2022/03/08 06:00:19;;;;;;;25.57;23.87;;;;;;;-141.02;100.00;55844.97;5133047;27;20623;-75
2022/03/08 06:02:46;;;;;;;22.23;20.80;;;;;;;-141.02;100.00;55844.97;5132971;27;20232;-75
2022/03/08 06:05:15;;;;;;;22.53;21.23;;;;;;;-141.02;100.00;55844.97;5133296;27;20249;-75
2022/03/08 06:07:42;;;;;;;21.27;19.97;;;;;;;-141.02;100.00;55844.97;5132885;28;20196;-75
2022/03/08 06:10:10;;;;;;;24.50;22.47;;;;;;;-141.02;100.00;55844.97;5133244;27;20615;-75
2022/03/08 06:12:38;;;;;;;24.80;23.20;;;;;;;-141.02;100.00;55844.97;5133269;27;20242;-74
2022/03/08 06:15:06;;;;;;;21.40;20.13;;;;;;;-141.02;100.00;55844.97;5133068;27;20713;-75
2022/03/08 06:17:33;;;;;;;24.43;22.80;;;;;;;-141.02;100.00;55844.97;5132839;28;20218;-74
2022/03/08 06:20:01;;;;;;;23.33;21.70;;;;;;;-141.02;100.00;55844.97;5133054;27;20252;-74
2022/03/08 06:22:29;;;;;;;23.77;21.97;;;;;;;-141.02;100.00;55844.97;5133115;27;20192;-74
2022/03/08 06:24:56;;;;;;;27.03;24.73;;;;;;;-141.02;100.00;55844.97;5133102;27;20192;-74
2022/03/08 06:27:23;;;;;;;21.47;20.17;;;;;;;-141.02;100.00;55844.97;5133009;28;20253;-74
2022/03/08 06:29:51;;;;;;;19.60;18.40;;;;;;;-141.02;100.00;55844.97;5133728;27;20196;-74
2022/03/08 06:32:18;;;;;;;19.67;18.47;;;;;;;-141.02;100.00;55844.97;5136888;27;20200;-74
2022/03/08 06:34:45;;;;;;;24.07;22.30;;;;;;;-141.02;100.00;55844.97;5136774;27;20197;-74
2022/03/08 06:37:12;;;;;;;21.53;20.13;;;;;;;-141.02;100.00;55844.97;5136844;27;20307;-74
2022/03/08 06:39:41;;;;;;;23.60;22.00;;;;;;;-141.02;100.00;55844.97;5136979;27;20664;-74
2022/03/08 06:42:09;;;;;;;26.17;24.03;;;;;;;-141.02;100.00;55844.97;5136796;27;20200;-74
2022/03/08 06:44:38;;;;;;;24.10;22.63;;;;;;;-141.02;100.00;55844.97;5136984;27;20235;-74
2022/03/08 06:47:06;;;;;;;21.20;19.90;;;;;;;-141.02;100.00;55844.97;5136644;27;20192;-74
2022/03/08 06:49:33;;;;;;;23.80;22.20;;;;;;;-141.02;100.00;55844.97;5136778;27;20253;-74
2022/03/08 06:52:00;;;;;;;22.30;20.83;;;;;;;-141.02;100.00;55844.97;5136544;27;20203;-74
2022/03/08 06:54:27;;;;;;;20.77;19.20;;;;;;;-141.02;100.00;55844.97;5137536;27;20197;-74
2022/03/08 06:56:56;;;;;;;20.17;18.97;;;;;;;-141.02;100.00;55844.97;5136269;27;20582;-74
2022/03/08 06:59:24;;;;;;;19.50;18.50;;;;;;;-141.02;100.00;55844.97;5136357;27;20612;-74
2022/03/08 07:01:51;;;;;;;18.73;17.73;;;;;;;-141.02;100.00;55844.97;5136571;27;20199;-74
2022/03/08 07:04:18;;;;;;;21.73;20.23;;;;;;;-141.02;100.00;55844.97;5136251;27;20278;-74
2022/03/08 07:06:45;;;;;;;24.63;22.73;;;;;;;-141.02;100.00;55844.97;5136471;27;20189;-75
2022/03/08 07:09:12;;;;;;;24.57;22.53;;;;;;;-141.02;100.00;55844.97;5136263;27;20249;-74
2022/03/08 07:11:40;;;;;;;25.70;23.60;;;;;;;-141.02;100.00;55844.97;5136444;27;20239;-74
2022/03/08 07:14:09;;;;;;;20.13;18.93;;;;;;;-141.02;100.00;55844.97;5136090;27;20227;-74
2022/03/08 07:16:36;;;;;;;25.33;23.07;;;;;;;-141.02;100.00;55844.97;5136070;27;20816;-74
2022/03/08 07:19:03;;;;;;;22.30;20.90;;;;;;;-141.02;100.00;55844.97;5136550;27;20188;-74
2022/03/08 07:21:30;;;;;;;23.63;21.87;;;;;;;-141.02;100.00;55844.97;5136244;27;20228;-74
2022/03/08 07:23:57;;;;;;;21.47;19.77;;;;;;;-141.02;100.00;55844.97;5136145;27;20259;-74
2022/03/08 07:26:24;;;;;;;22.43;20.63;;;;;;;-141.02;100.00;55844.97;5135960;27;20185;-74
2022/03/08 07:28:51;;;;;;;20.43;19.03;;;;;;;-141.02;100.00;55844.97;5136152;27;20196;-74
2022/03/08 07:31:20;;;;;;;19.60;18.43;;;;;;;-141.02;100.00;55844.97;5135782;27;20727;-74
2022/03/08 07:33:47;;;;;;;22.93;20.80;;;;;;;-141.02;100.00;55844.97;5136891;27;20257;-74
2022/03/08 07:36:14;;;;;;;21.80;20.17;;;;;;;-141.02;100.00;55844.97;5135902;27;20228;-74
2022/03/08 07:38:41;;;;;;;25.33;23.07;;;;;;;-141.02;100.00;55844.97;5135710;27;20228;-74
2022/03/08 07:41:08;;;;;;;19.13;17.93;;;;;;;-141.02;100.00;55844.97;5134423;27;20236;-74
2022/03/08 07:43:36;;;;;;;22.37;20.70;;;;;;;-141.02;100.00;55844.97;5135434;27;20189;-74
2022/03/08 07:46:03;;;;;;;23.53;21.47;;;;;;;-141.02;100.00;55844.97;5135785;27;20230;-74
2022/03/08 07:48:32;;;;;;;20.53;19.10;;;;;;;-141.02;100.00;55844.97;5135391;27;20197;-74
2022/03/08 07:50:59;;;;;;;20.83;19.47;;;;;;;-141.02;100.00;55844.97;5135379;27;20192;-74
2022/03/08 07:53:26;;;;;;;25.57;23.37;;;;;;;-141.02;100.00;55844.97;5135622;27;20269;-74
2022/03/08 07:55:53;;;;;;;25.07;23.00;;;;;;;-141.02;100.00;55844.97;5135489;27;20259;-74
2022/03/08 07:58:20;;;;;;;20.27;18.97;;;;;;;-141.02;100.00;55844.97;5135192;27;20659;-74
2022/03/08 08:00:47;;;;;;;29.37;26.20;;;;;;;-141.02;100.00;55844.97;5135331;27;20197;-74
2022/03/08 08:03:14;;;;;;;28.80;25.83;;;;;;;-141.02;100.00;55844.97;5135456;27;20196;-74
2022/03/08 08:05:43;;;;;;;27.33;25.00;;;;;;;-141.02;100.00;55844.97;5135406;27;20269;-74
2022/03/08 08:08:10;;;;;;;20.53;19.23;;;;;;;-141.02;100.00;55844.97;5135364;27;20196;-74
2022/03/08 08:10:37;;;;;;;28.10;24.50;;;;;;;-141.02;100.00;55844.97;5134999;27;20196;-74
2022/03/08 08:13:04;;;;;;;23.00;21.30;;;;;;;-141.02;100.00;55844.97;5135210;27;20271;-73
2022/03/08 08:15:32;;;;;;;24.30;22.57;;;;;;;-141.02;100.00;55844.97;5134789;27;20265;-73
2022/03/08 08:17:59;;;;;;;21.57;19.97;;;;;;;-141.02;100.00;55844.97;5135140;27;20192;-74
2022/03/08 08:20:26;;;;;;;25.40;23.70;;;;;;;-141.02;100.00;55844.97;5135092;27;20192;-74
2022/03/08 08:22:55;;;;;;;27.57;25.37;;;;;;;-141.02;100.00;55844.97;5134998;27;20224;-73
2022/03/08 08:25:22;;;;;;;25.17;22.80;;;;;;;-141.02;100.00;55844.97;5135032;27;20200;-73
2022/03/08 08:27:49;;;;;;;25.17;23.40;;;;;;;-141.02;100.00;55844.97;5134966;27;20271;-73
2022/03/08 08:30:16;;;;;;;27.47;24.90;;;;;;;-141.02;100.00;55844.97;5134902;27;20220;-74
2022/03/08 08:32:44;;;;;;;24.00;22.40;;;;;;;-141.02;100.00;55844.97;5134910;27;20195;-73
2022/03/08 08:35:11;;;;;;;26.77;24.10;;;;;;;-141.02;100.00;55844.97;5134760;27;20197;-73
2022/03/08 08:37:38;;;;;;;24.00;21.77;;;;;;;-141.02;100.00;55844.97;5134749;27;20583;-73
2022/03/08 08:40:08;;;;;;;24.73;22.60;;;;;;;-141.02;100.00;55844.97;5134736;27;20196;-73
2022/03/08 08:42:35;;;;;;;24.73;22.77;;;;;;;-141.02;100.00;55844.97;5134451;27;20231;-73
2022/03/08 08:45:02;;;;;;;25.13;22.83;;;;;;;-141.02;100.00;55844.97;5134685;27;20241;-73
2022/03/08 08:47:29;;;;;;;25.30;22.90;;;;;;;-141.02;100.00;55844.97;5134233;27;20287;-73
2022/03/08 08:49:56;;;;;;;22.33;20.83;;;;;;;-141.02;100.00;55844.97;5134193;27;20193;-73
2022/03/08 08:52:23;;;;;;;27.93;25.67;;;;;;;-141.02;100.00;55844.97;5134021;27;20612;-74
2022/03/08 08:54:50;;;;;;;24.40;22.50;;;;;;;-141.02;100.00;55844.97;5134081;27;20240;-73
2022/03/08 08:57:19;;;;;;;27.93;25.37;;;;;;;-141.02;100.00;55844.97;5135170;27;20228;-73
2022/03/08 08:59:46;;;;;;;25.00;22.83;;;;;;;-141.02;100.00;55844.97;5133996;27;20231;-73
2022/03/08 09:02:13;;;;;;;24.60;22.60;;;;;;;-141.02;100.00;55844.97;5133974;27;20200;-73
2022/03/08 09:04:40;;;;;;;25.27;23.13;;;;;;;-141.02;100.00;55844.97;5134140;27;20701;-73
2022/03/08 09:07:07;;;;;;;25.30;23.20;;;;;;;-141.02;100.00;55844.97;5134219;27;20260;-73
2022/03/08 09:09:34;;;;;;;23.37;21.57;;;;;;;-141.02;100.00;55844.97;5133829;27;20239;-73
2022/03/08 09:12:01;;;;;;;19.13;17.83;;;;;;;-141.02;100.00;55844.97;5134080;27;20291;-73
2022/03/08 09:14:30;;;;;;;32.00;25.07;;;;;;;-141.02;100.00;55844.97;5134033;27;20189;-72
2022/03/08 09:16:57;;;;;;;22.43;20.57;;;;;;;-141.02;100.00;55844.97;5133561;27;20316;-72
2022/03/08 09:19:24;;;;;;;23.10;21.30;;;;;;;-141.02;100.00;55844.97;5133906;27;20197;-72
2022/03/08 09:21:51;;;;;;;26.03;23.80;;;;;;;-141.02;100.00;55844.97;5133938;27;20193;-73
2022/03/08 09:24:18;;;;;;;22.27;20.63;;;;;;;-141.02;100.00;55844.97;5133592;27;20224;-72
2022/03/08 09:26:45;;;;;;;24.37;22.20;;;;;;;-141.02;100.00;55844.97;5133789;27;20754;-72
2022/03/08 09:29:12;;;;;;;27.23;24.77;;;;;;;-141.02;100.00;55844.97;5133804;27;20197;-73
2022/03/08 09:31:41;;;;;;;27.53;25.00;;;;;;;-141.02;100.00;55844.97;5133919;27;20320;-73
2022/03/08 09:34:08;;;;;;;37.70;24.10;;;;;;;-141.02;100.00;55844.97;5133405;27;20662;-72
2022/03/08 09:36:36;;;;;;;28.20;25.80;;;;;;;-141.02;100.00;55844.97;5133673;27;20284;-73
2022/03/08 09:39:03;;;;;;;27.70;24.87;;;;;;;-141.02;100.00;55844.97;5133425;27;20244;-77
2022/03/08 09:41:30;;;;;;;27.73;25.13;;;;;;;-141.02;100.00;55844.97;5133587;27;20272;-72
2022/03/08 09:44:00;;;;;;;34.83;24.60;;;;;;;-141.02;100.00;55844.97;5133806;27;20196;-72
2022/03/08 09:46:27;;;;;;;30.30;26.13;;;;;;;-141.02;100.00;55844.97;5133495;27;20235;-72
2022/03/08 09:48:56;;;;;;;26.30;24.03;;;;;;;-141.02;100.00;55844.97;5133225;27;20666;-73
2022/03/08 09:51:24;;;;;;;23.27;21.67;;;;;;;-141.02;100.00;55844.97;5133107;27;20196;-72
2022/03/08 09:53:54;;;;;;;24.43;22.57;;;;;;;-141.02;100.00;55844.97;5133380;27;20192;-73
2022/03/08 09:56:21;;;;;;;24.33;22.43;;;;;;;-141.02;100.00;55844.97;5132983;27;20220;-73
2022/03/08 09:58:48;;;;;;;25.00;23.17;;;;;;;-141.02;100.00;55844.97;5133035;27;20235;-73
2022/03/08 10:01:15;;;;;;;25.23;23.33;;;;;;;-141.02;100.00;55844.97;5133334;27;20228;-73
2022/03/08 10:03:46;;;;;;;28.43;25.63;;;;;;;-141.02;100.00;55844.97;5133009;27;20193;-73
2022/03/08 10:06:15;;;;;;;27.47;25.43;;;;;;;-141.02;100.00;55844.97;5132687;27;20618;-73
2022/03/08 10:08:42;;;;;;;30.63;27.63;;;;;;;-141.02;100.00;55844.97;5133482;27;20196;-74
2022/03/08 10:11:11;;;;;;;26.63;24.43;;;;;;;-141.02;100.00;55844.97;5133001;28;20188;-73
2022/03/08 10:13:42;;;;;;;27.80;25.83;;;;;;;-141.02;100.00;55844.97;5133373;28;20244;-73
2022/03/08 10:16:14;;;;;;;24.77;23.17;;;;;;;-141.02;100.00;55844.97;5133199;27;20593;-73
2022/03/08 10:18:45;;;;;;;23.97;22.47;;;;;;;-141.02;100.00;55844.97;5133356;28;20269;-73
2022/03/08 10:21:34;;;;;;;32.83;29.67;;;;;;;-141.02;100.00;55844.97;5133147;27;20236;-74
2022/03/08 10:24:03;;;;;;;28.93;26.57;;;;;;;-141.02;100.00;55844.97;5132863;27;20185;-73
2022/03/08 10:26:32;;;;;;;24.83;23.33;;;;;;;-141.02;100.00;55844.97;5132923;27;20195;-73
2022/03/08 10:29:00;;;;;;;26.07;24.00;;;;;;;-141.02;100.00;55844.97;5132788;27;20195;-73
2022/03/08 10:31:27;;;;;;;25.97;24.13;;;;;;;-141.02;100.00;55844.97;5132797;28;20677;-73
2022/03/08 10:34:03;;;;;;;24.53;22.93;;;;;;;-141.02;100.00;55844.97;5133046;27;20253;-73
2022/03/08 10:36:35;;;;;;;25.83;24.13;;;;;;;-141.02;100.00;55844.97;5132714;27;20247;-73
2022/03/08 10:39:11;;;;;;;26.00;24.07;;;;;;;-141.02;100.00;55844.97;5132580;28;20774;-74
2022/03/08 10:41:52;;;;;;;24.43;22.83;;;;;;;-141.02;100.00;55844.97;5132950;28;20595;-73
2022/03/08 10:44:35;;;;;;;24.23;22.67;;;;;;;-141.02;100.00;55844.97;5132700;27;20727;-74
2022/03/08 10:47:05;;;;;;;25.07;23.27;;;;;;;-141.02;100.00;55844.97;5132970;27;20192;-73
2022/03/08 10:49:33;;;;;;;32.17;28.67;;;;;;;-141.02;100.00;55844.97;5132617;27;20721;-74
2022/03/08 10:52:05;;;;;;;34.17;29.07;;;;;;;-141.02;100.00;55844.97;5132717;28;20283;-75
2022/03/08 10:54:32;;;;;;;22.97;21.47;;;;;;;-141.02;100.00;55844.97;5132907;27;20238;-74
2022/03/08 10:56:59;;;;;;;24.10;22.50;;;;;;;-141.02;100.00;55844.97;5132649;27;20263;-74